Terminal Aerodrome Forecast
Issued by NWS

Home | Current Version | Previous Version | Text Only | Print | Product List | Glossary On
Versions: 1 2 3 4 5 6 7 8 9 10 11 12 13 14 15 16 17 18 19 20 21 22 23 24 25 26 27 28 29 30 31 32 33 34 35 36 37 38
000
FTAK31 PAFA 301341 AAB
TAFAQT
TAF AMD
PAQT 301341Z 3014/3112 02006KT 2SM BR BKN004 OVC015
      TEMPO 3014/3016 1SM BR VV003
     FM301600 05008KT 3SM BR VCSH BKN007 OVC015
     FM302000 04010KT P6SM BKN015 OVC025
     FM310400 33010KT 6SM BR BKN015 OVC025=

USA.gov is the U.S. government's official web portal to all federal, state and local government web resources and services.